Ocean Bay Park, New York
Current Conditions -  °F | °C
As of 7:56 PM on Saturday 20 Dec 2014 (Local Time) from KISP Reporting Station
Overcast Overcast  
Wind Chill: 33°   Ceiling: 2000
Heat Index: 33°   Visibility: 10mi
Dew Point: 23°   Wind: 3mph
Humidity: 66%   Direction: 310°NW
Pressure: 30.26"   Gusts: NA
Location:  40.6448°N, 73.1603°W
Report Text: KISP 210056Z 31003KT 10SM OVC020 01/M05 A3026 RMK AO2 SLP247 T00061050
Loading
Personal Weather Stations






























Interactive Weather Map New forecast layout! Learn more

10-Day Weather Forecast

Advertisements
Track Severe Weather on mobile